createdAt,value
2019-03-12T00:01:00.936Z,3.30
2019-03-12T00:03:30.420Z,3.20
2019-03-12T00:05:59.880Z,3.30
2019-03-12T00:08:29.361Z,3.20
2019-03-12T00:10:58.819Z,3.20
2019-03-12T00:13:28.296Z,3.20
2019-03-12T00:15:57.852Z,3.20
2019-03-12T00:18:28.632Z,3.20
2019-03-12T00:20:58.304Z,3.30
2019-03-12T00:23:27.782Z,3.20
2019-03-12T00:25:57.260Z,3.20
2019-03-12T00:28:26.703Z,3.10
2019-03-12T00:30:56.156Z,3.10
2019-03-12T00:33:25.640Z,3.10
2019-03-12T00:35:55.088Z,3.00
2019-03-12T00:38:24.569Z,3.00
2019-03-12T00:40:54.025Z,3.00
2019-03-12T00:43:23.512Z,3.00
2019-03-12T00:45:52.981Z,3.00
2019-03-12T00:48:22.436Z,3.00
2019-03-12T00:50:52.020Z,3.10
2019-03-12T00:53:21.472Z,3.00
2019-03-12T00:55:50.949Z,3.10
2019-03-12T00:58:20.417Z,3.00
2019-03-12T01:00:49.918Z,3.00
2019-03-12T01:03:19.404Z,3.00
2019-03-12T01:05:48.856Z,3.00
2019-03-12T01:08:18.365Z,2.90
2019-03-12T01:10:47.860Z,2.90
2019-03-12T01:13:18.538Z,2.90
2019-03-12T01:15:47.941Z,2.90
2019-03-12T01:18:17.868Z,3.00
2019-03-12T01:20:47.329Z,3.00
2019-03-12T01:23:17.057Z,3.00
2019-03-12T01:25:46.541Z,3.00
2019-03-12T01:28:16.038Z,2.90
2019-03-12T01:30:45.513Z,2.90
2019-03-12T01:33:14.980Z,3.00
2019-03-12T01:35:44.463Z,3.00
2019-03-12T01:38:13.924Z,3.00
2019-03-12T01:40:43.476Z,3.00
2019-03-12T01:43:12.976Z,3.00
2019-03-12T01:45:42.422Z,3.00
2019-03-12T01:48:11.914Z,3.00
2019-03-12T01:50:41.364Z,2.90
2019-03-12T01:53:10.852Z,2.90
2019-03-12T01:55:40.304Z,2.80
2019-03-12T01:58:09.757Z,2.90
2019-03-12T02:00:39.285Z,2.80
2019-03-12T02:03:08.740Z,2.70
2019-03-12T02:05:38.213Z,2.70
2019-03-12T02:08:07.666Z,2.60
2019-03-12T02:10:37.456Z,2.60
2019-03-12T02:13:06.920Z,2.60
2019-03-12T02:15:36.407Z,2.50
2019-03-12T02:18:05.856Z,2.60
2019-03-12T02:20:35.348Z,2.50
2019-03-12T02:23:04.808Z,2.50
2019-03-12T02:25:34.330Z,2.40
2019-03-12T02:28:03.790Z,2.30
2019-03-12T02:30:33.278Z,2.10
2019-03-12T02:33:02.742Z,1.90
2019-03-12T02:35:32.236Z,1.80
2019-03-12T02:38:01.680Z,1.80
2019-03-12T02:40:31.156Z,1.80
2019-03-12T02:43:00.595Z,1.70
2019-03-12T02:45:30.088Z,1.70
2019-03-12T02:47:59.565Z,1.60
2019-03-12T02:50:29.058Z,1.60
2019-03-12T02:52:58.618Z,1.50
2019-03-12T02:55:28.061Z,1.50
2019-03-12T02:57:57.513Z,1.50
2019-03-12T03:00:26.986Z,1.60
2019-03-12T03:02:56.435Z,1.50
2019-03-12T03:05:26.019Z,1.50
2019-03-12T03:08:01.253Z,1.50
2019-03-12T03:10:30.736Z,1.50
2019-03-12T03:13:00.204Z,1.70
2019-03-12T03:15:35.609Z,1.60
2019-03-12T03:18:05.087Z,1.60
2019-03-12T03:20:34.556Z,1.60
2019-03-12T03:23:04.518Z,1.60
2019-03-12T03:25:34.040Z,1.60
2019-03-12T03:28:03.794Z,1.60
2019-03-12T03:30:33.284Z,1.60
2019-03-12T03:33:02.798Z,1.60
2019-03-12T03:35:32.277Z,1.60
2019-03-12T03:38:01.813Z,1.60
2019-03-12T03:40:31.301Z,1.60
2019-03-12T03:43:00.759Z,1.70
2019-03-12T03:45:30.219Z,1.60
2019-03-12T03:47:59.702Z,1.70
2019-03-12T03:50:29.174Z,1.70
2019-03-12T03:52:58.638Z,1.60
2019-03-12T03:55:28.162Z,1.60
2019-03-12T03:57:57.600Z,1.60
2019-03-12T04:00:27.089Z,1.60
2019-03-12T04:02:56.539Z,1.50
2019-03-12T04:05:26.039Z,1.50
2019-03-12T04:07:55.515Z,1.50
2019-03-12T04:10:25.032Z,1.60
2019-03-12T04:12:54.465Z,1.60
2019-03-12T04:15:23.971Z,1.60
2019-03-12T04:17:53.473Z,1.60
2019-03-12T04:20:23.007Z,1.50
2019-03-12T04:22:52.477Z,1.50
2019-03-12T04:25:21.957Z,1.50
2019-03-12T04:27:51.455Z,1.60
2019-03-12T04:30:21.012Z,1.60
2019-03-12T04:32:50.472Z,1.60
2019-03-12T04:35:20.257Z,1.60
2019-03-12T04:37:49.771Z,1.70
2019-03-12T04:40:19.228Z,1.70
2019-03-12T04:42:48.800Z,1.80
2019-03-12T04:45:18.383Z,1.90
2019-03-12T04:47:47.844Z,2.00
2019-03-12T04:50:17.400Z,2.10
2019-03-12T04:52:46.893Z,2.10
2019-03-12T04:55:16.412Z,2.10
2019-03-12T04:57:45.847Z,2.10
2019-03-12T05:00:16.497Z,2.20
2019-03-12T05:02:46.028Z,2.10
2019-03-12T05:05:15.602Z,2.10
2019-03-12T05:07:45.099Z,2.20
2019-03-12T05:10:14.691Z,2.20
2019-03-12T05:12:44.171Z,2.20
2019-03-12T05:15:14.015Z,2.30
2019-03-12T05:17:44.063Z,2.30
2019-03-12T05:20:14.152Z,2.30
2019-03-12T05:22:43.601Z,2.30
2019-03-12T05:25:13.655Z,2.40
2019-03-12T05:27:43.533Z,2.30
2019-03-12T05:30:15.255Z,2.30
2019-03-12T05:32:44.752Z,2.30
2019-03-12T05:35:14.344Z,2.40
2019-03-12T05:37:44.037Z,2.40
2019-03-12T05:40:13.538Z,2.40
2019-03-12T05:42:43.017Z,2.40
2019-03-12T05:45:12.734Z,2.40
2019-03-12T05:47:42.397Z,2.30
2019-03-12T05:50:12.117Z,2.30
2019-03-12T05:52:41.585Z,2.40
2019-03-12T05:57:47.120Z,2.40
2019-03-12T06:00:17.009Z,2.40
2019-03-12T06:02:46.491Z,2.40
2019-03-12T06:05:15.989Z,2.40
2019-03-12T06:07:45.432Z,2.40
2019-03-12T06:10:20.714Z,2.50
2019-03-12T06:12:50.166Z,2.50
2019-03-12T06:15:19.663Z,2.50
2019-03-12T06:17:49.138Z,2.50
2019-03-12T06:20:18.597Z,2.50
2019-03-12T06:22:48.072Z,2.50
2019-03-12T06:25:17.533Z,2.50
2019-03-12T06:27:47.084Z,2.60
2019-03-12T06:30:16.549Z,2.60
2019-03-12T06:32:59.218Z,2.60
2019-03-12T06:35:41.903Z,2.70
2019-03-12T06:38:33.440Z,2.70
2019-03-12T06:41:18.633Z,2.80
2019-03-12T06:44:09.792Z,2.70
2019-03-12T06:47:00.528Z,2.80
2019-03-12T06:49:43.321Z,2.80
2019-03-12T06:52:32.869Z,2.80
2019-03-12T06:55:21.385Z,2.90
2019-03-12T06:58:29.422Z,2.90
2019-03-12T07:01:20.000Z,2.80
2019-03-12T07:04:13.132Z,2.90
2019-03-12T07:07:07.021Z,2.90
2019-03-12T07:09:54.180Z,2.80
2019-03-12T07:12:32.116Z,2.80
2019-03-12T07:15:29.521Z,2.80
2019-03-12T07:18:17.958Z,2.70
2019-03-12T07:21:06.381Z,2.70
2019-03-12T07:23:44.965Z,2.70
2019-03-12T07:26:26.616Z,2.60
2019-03-12T07:29:15.067Z,2.60
2019-03-12T07:32:02.726Z,2.70
2019-03-12T07:35:10.141Z,2.70
2019-03-12T07:38:17.525Z,2.80
2019-03-12T07:41:32.233Z,2.90
2019-03-12T07:44:14.941Z,3.10
2019-03-12T07:47:34.833Z,3.20
2019-03-12T07:50:28.260Z,3.30
2019-03-12T07:53:33.392Z,3.40
2019-03-12T07:56:28.937Z,3.40
2019-03-12T07:59:36.316Z,3.50
2019-03-12T08:02:39.383Z,3.60
2019-03-12T08:05:46.816Z,3.70
2019-03-12T08:08:44.496Z,3.80
2019-03-12T08:11:51.893Z,3.90
2019-03-12T08:14:37.014Z,3.90
2019-03-12T08:17:32.639Z,3.80
2019-03-12T08:20:40.069Z,3.90
2019-03-12T08:23:28.457Z,4.10
2019-03-12T08:26:35.916Z,4.30
2019-03-12T08:29:27.137Z,4.20
2019-03-12T08:32:23.968Z,4.30
2019-03-12T08:35:33.276Z,4.30
2019-03-12T08:38:19.217Z,4.40
2019-03-12T08:41:26.602Z,4.50
2019-03-12T08:44:37.525Z,4.60
2019-03-12T08:47:36.428Z,4.50
2019-03-12T08:50:43.844Z,4.30
2019-03-12T08:53:38.265Z,4.30
2019-03-12T08:56:45.681Z,4.40
2019-03-12T08:59:34.020Z,4.30
2019-03-12T09:02:22.409Z,4.50
2019-03-12T09:04:58.024Z,4.40
2019-03-12T09:07:46.409Z,4.60
2019-03-12T09:10:31.065Z,4.80
2019-03-12T09:13:38.491Z,4.90
2019-03-12T09:16:45.914Z,4.90
2019-03-12T09:19:37.060Z,5.10
2019-03-12T09:22:44.481Z,5.20
2019-03-12T09:25:38.873Z,5.60
2019-03-12T09:31:31.886Z,5.90
2019-03-12T09:34:30.308Z,5.80
2019-03-12T09:37:37.738Z,5.50
2019-03-12T09:43:43.599Z,5.80
2019-03-12T09:46:31.949Z,6.20
2019-03-12T09:49:40.700Z,6.30
2019-03-12T09:52:48.113Z,6.60
2019-03-12T09:55:24.334Z,7.00
2019-03-12T09:58:12.737Z,7.10
2019-03-12T10:01:20.157Z,7.40
2019-03-12T10:04:27.681Z,7.20
2019-03-12T10:07:35.161Z,6.70
2019-03-12T10:10:23.794Z,6.70
2019-03-12T10:13:24.872Z,6.60
2019-03-12T10:16:32.257Z,6.80
2019-03-12T10:19:31.589Z,6.80
2019-03-12T10:22:39.061Z,6.70
2019-03-12T10:25:46.465Z,6.90
2019-03-12T10:28:34.979Z,7.00
2019-03-12T10:31:42.377Z,7.00
2019-03-12T10:34:30.785Z,6.90
2019-03-12T10:37:44.246Z,7.30
2019-03-12T10:40:18.478Z,7.40
2019-03-12T10:43:26.206Z,7.40
2019-03-12T10:46:24.776Z,7.00
2019-03-12T10:49:06.201Z,7.00
2019-03-12T10:51:47.141Z,6.90
2019-03-12T10:54:16.664Z,7.00
2019-03-12T10:57:05.164Z,6.80
2019-03-12T10:59:53.698Z,6.70
2019-03-12T11:02:23.247Z,6.90
2019-03-12T11:05:11.872Z,6.90
2019-03-12T11:08:00.381Z,7.20
2019-03-12T11:10:30.056Z,7.20
2019-03-12T11:13:18.564Z,7.50
2019-03-12T11:16:07.084Z,7.50
2019-03-12T11:21:24.662Z,7.50
2019-03-12T11:24:13.154Z,7.60
2019-03-12T11:27:01.730Z,7.70
2019-03-12T11:29:31.187Z,7.90
2019-03-12T11:32:19.717Z,8.30
2019-03-12T11:37:56.959Z,8.50
2019-03-12T11:40:31.623Z,8.40
2019-03-12T11:43:16.817Z,8.20
2019-03-12T11:48:54.009Z,8.30
2019-03-12T11:51:23.510Z,8.40
2019-03-12T11:53:52.931Z,8.70
2019-03-12T11:56:34.342Z,8.80
2019-03-12T11:59:15.043Z,9.10
2019-03-12T12:01:56.692Z,9.30
2019-03-12T12:04:26.260Z,8.70
2019-03-12T12:07:14.709Z,8.90
2019-03-12T12:10:03.509Z,8.90
2019-03-12T12:12:51.997Z,9.00
2019-03-12T12:15:21.505Z,9.70
2019-03-12T12:18:09.999Z,9.40
2019-03-12T12:20:39.481Z,9.30
2019-03-12T12:23:27.971Z,9.60
2019-03-12T12:26:16.505Z,10.30
2019-03-12T12:29:05.000Z,10.40
2019-03-12T12:31:34.487Z,10.80
2019-03-12T12:34:22.987Z,10.80
2019-03-12T12:37:13.783Z,10.90
2019-03-12T12:40:01.652Z,11.00
2019-03-12T12:42:50.177Z,11.30
2019-03-12T12:45:19.968Z,11.70
2019-03-12T12:47:49.431Z,11.30
2019-03-12T12:50:19.065Z,11.20
2019-03-12T12:53:07.560Z,10.70
2019-03-12T12:55:56.099Z,10.50
2019-03-12T12:58:25.561Z,10.90
2019-03-12T13:00:55.056Z,11.50
2019-03-12T13:03:24.544Z,11.70
2019-03-12T13:06:13.040Z,11.10
2019-03-12T13:08:42.537Z,11.70
2019-03-12T13:11:12.024Z,11.50
2019-03-12T13:14:00.516Z,11.90
2019-03-12T13:16:30.022Z,11.80
2019-03-12T13:18:59.498Z,12.00
2019-03-12T13:21:28.956Z,12.10
2019-03-12T13:24:17.456Z,11.90
2019-03-12T13:27:05.992Z,12.20
2019-03-12T13:29:54.532Z,12.70
2019-03-12T13:32:24.117Z,12.80
2019-03-12T13:35:13.216Z,12.80
2019-03-12T13:37:54.257Z,12.40
2019-03-12T13:40:24.314Z,12.40
2019-03-12T13:43:13.215Z,12.30
2019-03-12T13:46:01.745Z,12.00
2019-03-12T13:48:50.306Z,12.00
2019-03-12T13:51:19.755Z,12.00
2019-03-12T13:54:09.737Z,12.20
2019-03-12T13:56:58.480Z,12.30
2019-03-12T13:59:27.966Z,11.50
2019-03-12T14:02:16.493Z,11.30
2019-03-12T14:04:45.955Z,11.30
2019-03-12T14:07:15.422Z,11.70
2019-03-12T14:09:44.921Z,12.00
2019-03-12T14:15:41.295Z,12.70
2019-03-12T14:18:10.731Z,12.80
2019-03-12T14:21:01.075Z,12.40
2019-03-12T14:24:08.607Z,12.20
2019-03-12T14:32:33.501Z,11.60
2019-03-12T14:35:03.020Z,11.20
2019-03-12T14:37:51.559Z,11.00
2019-03-12T14:40:40.196Z,10.90
2019-03-12T14:43:09.717Z,10.60
2019-03-12T14:45:58.263Z,10.20
2019-03-12T14:48:47.597Z,10.20
2019-03-12T14:51:55.165Z,10.00
2019-03-12T14:54:43.667Z,10.00
2019-03-12T14:57:32.045Z,10.20
2019-03-12T15:00:01.526Z,10.30
2019-03-12T15:02:50.074Z,10.40
2019-03-12T15:05:38.605Z,10.30
2019-03-12T15:11:39.535Z,10.00
2019-03-12T15:14:09.022Z,9.90
2019-03-12T15:16:38.466Z,9.70
2019-03-12T15:19:07.936Z,9.70
2019-03-12T15:21:56.444Z,9.60
2019-03-12T15:24:44.985Z,9.40
2019-03-12T15:27:33.476Z,9.40
2019-03-12T15:30:03.114Z,9.30
2019-03-12T15:32:51.596Z,9.30
2019-03-12T15:35:40.145Z,9.30
2019-03-12T15:38:28.640Z,9.40
2019-03-12T15:40:58.149Z,9.30
2019-03-12T15:43:47.034Z,9.20
2019-03-12T15:46:27.760Z,9.10
2019-03-12T15:48:57.244Z,9.00
2019-03-12T15:51:45.780Z,9.00
2019-03-12T15:54:34.280Z,8.90
2019-03-12T15:59:57.728Z,8.90
2019-03-12T16:02:46.285Z,8.90
2019-03-12T16:05:34.778Z,8.80
2019-03-12T16:08:23.310Z,8.80
2019-03-12T16:11:11.837Z,8.80
2019-03-12T16:16:50.981Z,8.80
2019-03-12T16:19:39.504Z,8.70
2019-03-12T16:22:28.007Z,8.60
2019-03-12T16:24:57.504Z,8.60
2019-03-12T16:27:45.996Z,8.60
2019-03-12T16:30:34.524Z,8.50
2019-03-12T16:33:23.020Z,8.50
2019-03-12T16:35:52.653Z,8.40
2019-03-12T16:38:34.161Z,8.40
2019-03-12T16:41:15.013Z,8.40
2019-03-12T16:43:44.515Z,8.30
2019-03-12T16:46:33.051Z,8.30
2019-03-12T16:49:21.540Z,8.30
2019-03-12T16:51:51.045Z,8.20
2019-03-12T16:54:39.532Z,8.20
2019-03-12T16:57:09.028Z,8.10
2019-03-12T16:59:57.576Z,8.00
2019-03-12T17:05:40.105Z,7.90
2019-03-12T17:08:09.605Z,7.90
2019-03-12T17:11:02.639Z,7.80
2019-03-12T17:13:48.728Z,7.70
2019-03-12T17:16:37.229Z,7.60
2019-03-12T17:19:25.752Z,7.40
2019-03-12T17:21:55.305Z,7.30
2019-03-12T17:24:43.844Z,7.30
2019-03-12T17:27:32.393Z,7.30
2019-03-12T17:30:01.835Z,7.20
2019-03-12T17:32:50.353Z,7.20
2019-03-12T17:35:38.947Z,7.20
2019-03-12T17:38:20.248Z,7.10
2019-03-12T17:40:49.798Z,7.10
2019-03-12T17:43:38.442Z,7.10
2019-03-12T17:46:26.958Z,7.10
2019-03-12T17:48:56.823Z,7.10
2019-03-12T17:51:45.332Z,7.10
2019-03-12T17:54:33.855Z,7.10
2019-03-12T17:57:22.364Z,7.20
2019-03-12T17:59:51.852Z,7.10
2019-03-12T18:02:42.667Z,7.10
2019-03-12T18:05:30.708Z,7.10
2019-03-12T18:08:00.301Z,7.00
2019-03-12T18:10:48.829Z,7.00
2019-03-12T18:13:37.365Z,7.00
2019-03-12T18:16:06.832Z,7.00
2019-03-12T18:18:55.353Z,7.00
2019-03-12T18:21:24.851Z,6.90
2019-03-12T18:24:13.415Z,6.90
2019-03-12T18:27:01.900Z,7.00
2019-03-12T18:29:31.413Z,7.00
2019-03-12T18:32:19.914Z,7.00
2019-03-12T18:34:49.447Z,6.90
2019-03-12T18:37:18.907Z,6.90
2019-03-12T18:39:59.893Z,6.90
2019-03-12T18:42:29.424Z,6.80
2019-03-12T18:45:19.012Z,6.80
2019-03-12T18:48:07.522Z,6.70
2019-03-12T18:50:56.089Z,6.70
2019-03-12T18:53:25.566Z,6.70
2019-03-12T18:56:14.083Z,6.70
2019-03-12T18:59:02.669Z,6.70
2019-03-12T19:01:32.180Z,6.70
2019-03-12T19:04:20.712Z,6.70
2019-03-12T19:07:09.209Z,6.70
2019-03-12T19:09:57.747Z,6.70
2019-03-12T19:12:27.194Z,6.60
2019-03-12T19:15:15.728Z,6.60
2019-03-12T19:18:04.259Z,6.60
2019-03-12T19:20:33.756Z,6.60
2019-03-12T19:23:22.250Z,6.50
2019-03-12T19:25:51.763Z,6.60
2019-03-12T19:28:21.231Z,6.60
2019-03-12T19:33:27.760Z,6.50
2019-03-12T19:36:16.300Z,6.50
2019-03-12T19:39:26.558Z,6.50
2019-03-12T19:41:56.121Z,6.40
2019-03-12T19:44:25.602Z,6.40
2019-03-12T19:47:14.208Z,6.40
2019-03-12T19:50:02.726Z,6.40
2019-03-12T19:52:32.341Z,6.30
2019-03-12T19:55:22.012Z,6.30
2019-03-12T19:58:10.595Z,6.30
2019-03-12T20:00:59.773Z,6.30
2019-03-12T20:03:29.319Z,6.30
2019-03-12T20:06:17.820Z,6.20
2019-03-12T20:09:27.002Z,6.20
2019-03-12T20:12:34.588Z,6.20
2019-03-12T20:15:42.154Z,6.30
2019-03-12T20:18:49.798Z,6.30
2019-03-12T20:21:57.392Z,6.40
2019-03-12T20:25:05.011Z,6.50
2019-03-12T20:31:21.226Z,6.40
2019-03-12T20:34:28.748Z,6.40
2019-03-12T20:37:39.284Z,6.30
2019-03-12T20:40:20.178Z,6.30
2019-03-12T20:43:27.763Z,6.30
2019-03-12T20:46:35.399Z,6.30
2019-03-12T20:49:42.969Z,6.40
2019-03-12T20:52:50.508Z,6.40
2019-03-12T20:55:58.067Z,6.40
2019-03-12T20:59:05.652Z,6.40
2019-03-12T21:02:13.120Z,6.40
2019-03-12T21:05:20.781Z,6.40
2019-03-12T21:08:31.200Z,6.40
2019-03-12T21:11:38.783Z,6.50
2019-03-12T21:14:46.353Z,6.40
2019-03-12T21:17:53.911Z,6.40
2019-03-12T21:20:55.892Z,6.40
2019-03-12T21:27:00.225Z,6.30
2019-03-12T21:29:53.602Z,6.40
2019-03-12T21:32:42.161Z,6.40
2019-03-12T21:35:11.624Z,6.50
2019-03-12T21:38:00.221Z,6.50
2019-03-12T21:40:29.700Z,6.50
2019-03-12T21:42:59.286Z,6.50
2019-03-12T21:45:47.833Z,6.40
2019-03-12T21:48:36.340Z,6.30
2019-03-12T21:51:24.947Z,6.30
2019-03-12T21:53:54.419Z,6.40
2019-03-12T21:56:23.941Z,6.30
2019-03-12T21:58:53.409Z,6.40
2019-03-12T22:01:41.941Z,6.40
2019-03-12T22:04:30.477Z,6.40
2019-03-12T22:06:59.977Z,6.40
2019-03-12T22:09:48.494Z,6.30
2019-03-12T22:15:30.824Z,6.30
2019-03-12T22:18:00.284Z,6.30
2019-03-12T22:20:51.211Z,6.40
2019-03-12T22:23:42.265Z,6.30
2019-03-12T22:26:30.792Z,6.30
2019-03-12T22:29:00.318Z,6.30
2019-03-12T22:31:29.853Z,6.30
2019-03-12T22:33:59.418Z,6.30
2019-03-12T22:36:47.965Z,6.30
2019-03-12T22:39:36.496Z,6.30
2019-03-12T22:42:25.028Z,6.30
2019-03-12T22:44:55.076Z,6.30
2019-03-12T22:47:43.622Z,6.30
2019-03-12T22:50:32.157Z,6.20
2019-03-12T22:53:01.696Z,6.30
2019-03-12T22:55:50.209Z,6.20
2019-03-12T22:58:38.740Z,6.20
2019-03-12T23:01:27.260Z,6.30
2019-03-12T23:03:56.748Z,6.40
2019-03-12T23:06:45.330Z,6.40
2019-03-12T23:09:14.887Z,6.50
2019-03-12T23:11:44.569Z,6.50
2019-03-12T23:14:14.068Z,6.50
2019-03-12T23:16:43.739Z,6.50
2019-03-12T23:19:13.262Z,6.50
2019-03-12T23:21:42.768Z,6.60
2019-03-12T23:24:12.429Z,6.60
2019-03-12T23:26:41.974Z,6.70
2019-03-12T23:29:30.723Z,6.60
2019-03-12T23:32:00.199Z,6.70
2019-03-12T23:34:48.840Z,6.70
2019-03-12T23:37:37.474Z,6.70
2019-03-12T23:40:26.004Z,6.80
2019-03-12T23:42:55.516Z,6.80
2019-03-12T23:45:36.576Z,6.80
2019-03-12T23:48:18.128Z,6.80
2019-03-12T23:50:47.652Z,6.90
2019-03-12T23:53:36.216Z,6.90
2019-03-12T23:56:24.760Z,7.00
2019-03-12T23:58:54.236Z,7.10
